Pagrindinis puslapis
METAR-TAF:

METAR-TAF

Oro uostai :

Noršiopingas, Švedija

platuma: 58-35N, ilguma: 016-09E, Aukštis: 34 m

Dabartinis oras

Ataskaita buvo paskelbta 19 minutes, ne 04:20 UTC
Vėjas 11 kt iš Vakarų/Pietvakarių
Temperatūra 4°C
Drėgmė 81%
Slėgis 994 hPa
Matomumas 10 km arba daugiau

METAR: ESSP 020420Z AUTO 25011KT 9999 NCD 04/01 Q0994

Laikas: 06:39 (04:39 UTC)

Prognozė

Ataskaita buvo paskelbta 14 valandos ir 9 minutes, ne 14:30 UTC
Prognozė galioja nuo 01 metu 15 UTC su 01 metu 17 UTC
Vėjas 14 kt iš Vakarų/Pietvakarių
Matomumas 10 km arba daugiau
nėra debesų žemiau 1500 m ir nėra kamuolinių lietaus debesų

TAF: ESSP 011430Z 0115/0117 25014KT CAVOK

Orai ataskaitas ir orų prognozės (METAR, TAF).

turimą stotys yra geltonos ir raudonos taškus žemėlapyje.

Perkelti pele per norėdami pamatyti stoties vardą.

Tada spustelėkite, norėdami matyti oro stebėjimo ir prognozės.

Norėdami pakeisti žemėlapį: spustelėkite ant žalios mygtukų su juodo kryžiaus žemyn,; žalią mygtuką su brūkšneliu, jei norite nutolinti; arba žalių rodyklių gretimoms žemėlapius.


METAR-TAF: